Airfield :
LOGIN :

Register | Disclaimer

   EN    FR    IT 

 










Legend :    VFR   Marginal VFR   IFR   Intensive IFR   Very Intensive IFR
Visi :
Ceiling :
>= 8 km
>= 3000ft
5 to 8 km
1000 to 3000 ft
1500m to 5 km
500 to 1000 ft
800 to 1500m
200 to 500 ft
< 800m
< 200 ft
Symbols :   Thunderstorms  Fog  Heavy snow  Heavy precipitations  Wind > 20 kt
SIGMETs :     Misc.  Thunderstorms  Icing  Turbulence  Mountain Waves  Volcanic Ashes







- Airport Elevation : 2077 ft
- IATA code : FMM


EDJA - Memmingen

CURRENT METAR :
  • 190820Z VRB02KT 9999 FEW041 20/13 Q1026

EXPIRED METARs :
  • 190750Z VRB03KT 9999 BKN040 19/12 Q1027
  • 190720Z VRB03KT 9999 SCT040 18/12 Q1027
  • 190650Z 20004KT 9999 FEW039 BKN046 17/13 Q1027
  • 190620Z 20005KT 160V220 9999 FEW040 BKN060 16/14 Q1026
  • 190550Z 20005KT 9999 FEW039 BKN060 15/14 Q1026

TAF TAF EDJA
Valid from the 19 at 09:00 until the 19 at 18:00 UTC


190800Z 1909/1918 31005KT 9999 SCT040
BECMG 1914/1916 02005KT
No reported NOTAMs for that airfield.



MET'MAP, your aeronautical weather chart ! - Copyright ORBIFLY December 2007 - Disclaimer

ORBIFLY MET'MAP TEAM :

Programming & Development : Alexandra Zaïnal
Concept & Development : Baudouin d'Aumeries
Co-Development & Prog : Marc-Olivier Méhu
Technical & hardware support : Manuel Goepfert

Contact : metmap@orbifly.com




SOURCES & CREDITS :

   NOAA